sensor_id;sensor_type;location;lat;lon;timestamp;P1;durP1;ratioP1;P2;durP2;ratioP2
23390;SDS011;11868;45.606;5.302;2023-05-29T00:00:00;6.55;;;3.80;;
23390;SDS011;11868;45.606;5.302;2023-05-29T00:02:26;4.63;;;3.30;;
23390;SDS011;11868;45.606;5.302;2023-05-29T00:04:51;6.32;;;3.40;;
23390;SDS011;11868;45.606;5.302;2023-05-29T00:07:16;6.18;;;3.60;;
23390;SDS011;11868;45.606;5.302;2023-05-29T00:09:42;4.03;;;3.50;;
23390;SDS011;11868;45.606;5.302;2023-05-29T00:12:07;5.93;;;3.50;;
23390;SDS011;11868;45.606;5.302;2023-05-29T00:14:32;6.80;;;3.35;;
23390;SDS011;11868;45.606;5.302;2023-05-29T00:16:58;7.55;;;3.63;;
23390;SDS011;11868;45.606;5.302;2023-05-29T00:19:23;5.40;;;3.65;;
23390;SDS011;11868;45.606;5.302;2023-05-29T00:21:50;5.75;;;3.72;;
23390;SDS011;11868;45.606;5.302;2023-05-29T00:24:15;7.57;;;4.00;;
23390;SDS011;11868;45.606;5.302;2023-05-29T00:26:42;6.95;;;4.32;;
23390;SDS011;11868;45.606;5.302;2023-05-29T00:29:07;5.22;;;3.50;;
23390;SDS011;11868;45.606;5.302;2023-05-29T00:31:32;5.55;;;3.30;;
23390;SDS011;11868;45.606;5.302;2023-05-29T00:33:58;7.68;;;3.85;;
23390;SDS011;11868;45.606;5.302;2023-05-29T00:36:23;6.18;;;3.88;;
23390;SDS011;11868;45.606;5.302;2023-05-29T00:38:50;8.25;;;3.75;;
23390;SDS011;11868;45.606;5.302;2023-05-29T00:41:15;5.82;;;3.40;;
23390;SDS011;11868;45.606;5.302;2023-05-29T00:43:44;6.70;;;4.10;;
23390;SDS011;11868;45.606;5.302;2023-05-29T00:46:09;6.10;;;3.90;;
23390;SDS011;11868;45.606;5.302;2023-05-29T00:48:35;7.07;;;4.07;;
23390;SDS011;11868;45.606;5.302;2023-05-29T00:51:00;5.22;;;3.67;;
23390;SDS011;11868;45.606;5.302;2023-05-29T00:53:26;10.75;;;4.30;;
23390;SDS011;11868;45.606;5.302;2023-05-29T00:55:51;6.13;;;4.38;;
23390;SDS011;11868;45.606;5.302;2023-05-29T00:58:17;5.95;;;3.97;;
23390;SDS011;11868;45.606;5.302;2023-05-29T01:00:42;5.78;;;3.67;;
23390;SDS011;11868;45.606;5.302;2023-05-29T01:03:08;7.28;;;3.90;;
23390;SDS011;11868;45.606;5.302;2023-05-29T01:05:34;6.93;;;3.72;;
23390;SDS011;11868;45.606;5.302;2023-05-29T01:08:01;6.75;;;3.75;;
23390;SDS011;11868;45.606;5.302;2023-05-29T01:10:27;8.82;;;4.25;;
23390;SDS011;11868;45.606;5.302;2023-05-29T01:15:58;6.22;;;3.58;;
23390;SDS011;11868;45.606;5.302;2023-05-29T01:21:14;8.93;;;4.05;;
23390;SDS011;11868;45.606;5.302;2023-05-29T01:23:53;8.65;;;3.85;;
23390;SDS011;11868;45.606;5.302;2023-05-29T01:29:13;9.70;;;3.67;;
23390;SDS011;11868;45.606;5.302;2023-05-29T01:31:40;7.72;;;4.22;;
23390;SDS011;11868;45.606;5.302;2023-05-29T01:34:07;6.47;;;3.92;;
23390;SDS011;11868;45.606;5.302;2023-05-29T01:36:32;9.57;;;4.38;;
23390;SDS011;11868;45.606;5.302;2023-05-29T01:38:58;6.10;;;3.88;;
23390;SDS011;11868;45.606;5.302;2023-05-29T01:41:24;7.90;;;4.10;;
23390;SDS011;11868;45.606;5.302;2023-05-29T01:43:51;7.78;;;3.92;;
23390;SDS011;11868;45.606;5.302;2023-05-29T01:46:17;5.63;;;4.32;;
23390;SDS011;11868;45.606;5.302;2023-05-29T01:48:43;7.78;;;4.40;;
23390;SDS011;11868;45.606;5.302;2023-05-29T01:51:10;6.50;;;4.07;;
23390;SDS011;11868;45.606;5.302;2023-05-29T01:53:36;6.30;;;4.03;;
23390;SDS011;11868;45.606;5.302;2023-05-29T01:56:02;6.85;;;4.13;;
23390;SDS011;11868;45.606;5.302;2023-05-29T01:58:28;7.65;;;3.97;;
23390;SDS011;11868;45.606;5.302;2023-05-29T02:00:54;6.22;;;3.88;;
23390;SDS011;11868;45.606;5.302;2023-05-29T02:03:20;7.28;;;4.35;;
23390;SDS011;11868;45.606;5.302;2023-05-29T02:05:46;5.63;;;3.67;;
23390;SDS011;11868;45.606;5.302;2023-05-29T02:08:11;6.93;;;4.30;;
23390;SDS011;11868;45.606;5.302;2023-05-29T02:10:37;7.70;;;4.53;;
23390;SDS011;11868;45.606;5.302;2023-05-29T02:13:02;9.25;;;4.20;;
23390;SDS011;11868;45.606;5.302;2023-05-29T02:15:27;11.48;;;4.25;;
23390;SDS011;11868;45.606;5.302;2023-05-29T02:17:53;8.27;;;4.20;;
23390;SDS011;11868;45.606;5.302;2023-05-29T02:20:18;9.65;;;3.83;;
23390;SDS011;11868;45.606;5.302;2023-05-29T02:22:44;6.43;;;4.13;;
23390;SDS011;11868;45.606;5.302;2023-05-29T02:25:10;7.38;;;4.20;;
23390;SDS011;11868;45.606;5.302;2023-05-29T02:27:36;4.40;;;3.60;;
23390;SDS011;11868;45.606;5.302;2023-05-29T02:30:01;6.03;;;4.07;;
23390;SDS011;11868;45.606;5.302;2023-05-29T02:32:26;5.05;;;3.85;;
23390;SDS011;11868;45.606;5.302;2023-05-29T02:34:53;10.25;;;4.50;;
23390;SDS011;11868;45.606;5.302;2023-05-29T02:37:19;6.25;;;4.20;;
23390;SDS011;11868;45.606;5.302;2023-05-29T02:39:44;10.23;;;4.05;;
23390;SDS011;11868;45.606;5.302;2023-05-29T02:42:09;6.47;;;3.97;;
23390;SDS011;11868;45.606;5.302;2023-05-29T02:44:35;6.70;;;4.15;;
23390;SDS011;11868;45.606;5.302;2023-05-29T02:47:00;6.03;;;4.05;;
23390;SDS011;11868;45.606;5.302;2023-05-29T02:49:26;8.27;;;4.35;;
23390;SDS011;11868;45.606;5.302;2023-05-29T02:51:51;7.38;;;4.20;;
23390;SDS011;11868;45.606;5.302;2023-05-29T02:54:21;5.68;;;4.28;;
23390;SDS011;11868;45.606;5.302;2023-05-29T02:56:47;7.35;;;4.03;;
23390;SDS011;11868;45.606;5.302;2023-05-29T02:59:13;6.63;;;4.32;;
23390;SDS011;11868;45.606;5.302;2023-05-29T03:01:38;6.90;;;4.30;;
23390;SDS011;11868;45.606;5.302;2023-05-29T03:04:03;6.47;;;3.92;;
23390;SDS011;11868;45.606;5.302;2023-05-29T03:06:29;6.18;;;4.20;;
23390;SDS011;11868;45.606;5.302;2023-05-29T03:08:54;7.22;;;4.25;;
23390;SDS011;11868;45.606;5.302;2023-05-29T03:11:20;8.48;;;4.60;;
23390;SDS011;11868;45.606;5.302;2023-05-29T03:13:48;7.00;;;3.70;;
23390;SDS011;11868;45.606;5.302;2023-05-29T03:16:14;8.02;;;4.03;;
23390;SDS011;11868;45.606;5.302;2023-05-29T03:18:39;6.95;;;4.68;;
23390;SDS011;11868;45.606;5.302;2023-05-29T03:21:06;5.93;;;4.15;;
23390;SDS011;11868;45.606;5.302;2023-05-29T03:23:31;7.68;;;3.95;;
23390;SDS011;11868;45.606;5.302;2023-05-29T03:25:57;7.00;;;3.90;;
23390;SDS011;11868;45.606;5.302;2023-05-29T03:28:22;5.20;;;3.83;;
23390;SDS011;11868;45.606;5.302;2023-05-29T03:30:47;7.30;;;4.72;;
23390;SDS011;11868;45.606;5.302;2023-05-29T03:33:13;5.88;;;3.83;;
23390;SDS011;11868;45.606;5.302;2023-05-29T03:35:38;8.35;;;4.38;;
23390;SDS011;11868;45.606;5.302;2023-05-29T03:38:03;6.45;;;4.10;;
23390;SDS011;11868;45.606;5.302;2023-05-29T03:40:29;6.40;;;4.32;;
23390;SDS011;11868;45.606;5.302;2023-05-29T03:42:54;6.63;;;3.92;;
23390;SDS011;11868;45.606;5.302;2023-05-29T03:45:20;9.00;;;4.20;;
23390;SDS011;11868;45.606;5.302;2023-05-29T03:47:45;6.45;;;4.15;;
23390;SDS011;11868;45.606;5.302;2023-05-29T03:50:11;7.10;;;4.32;;
23390;SDS011;11868;45.606;5.302;2023-05-29T03:52:39;5.97;;;4.55;;
23390;SDS011;11868;45.606;5.302;2023-05-29T03:55:08;8.52;;;4.55;;
23390;SDS011;11868;45.606;5.302;2023-05-29T03:57:34;9.68;;;4.25;;
23390;SDS011;11868;45.606;5.302;2023-05-29T03:59:59;8.13;;;4.38;;
23390;SDS011;11868;45.606;5.302;2023-05-29T04:02:25;10.20;;;4.35;;
23390;SDS011;11868;45.606;5.302;2023-05-29T04:04:51;6.63;;;4.15;;
23390;SDS011;11868;45.606;5.302;2023-05-29T04:07:17;7.88;;;4.10;;
23390;SDS011;11868;45.606;5.302;2023-05-29T04:09:44;6.00;;;3.78;;
23390;SDS011;11868;45.606;5.302;2023-05-29T04:12:09;6.07;;;4.05;;
23390;SDS011;11868;45.606;5.302;2023-05-29T04:14:35;8.50;;;4.10;;
23390;SDS011;11868;45.606;5.302;2023-05-29T04:17:00;6.13;;;4.38;;
23390;SDS011;11868;45.606;5.302;2023-05-29T04:19:26;7.45;;;4.25;;
23390;SDS011;11868;45.606;5.302;2023-05-29T04:21:51;7.10;;;4.30;;
23390;SDS011;11868;45.606;5.302;2023-05-29T04:24:16;7.50;;;4.22;;
23390;SDS011;11868;45.606;5.302;2023-05-29T04:26:42;7.18;;;4.10;;
23390;SDS011;11868;45.606;5.302;2023-05-29T04:29:08;6.25;;;4.00;;
23390;SDS011;11868;45.606;5.302;2023-05-29T04:31:33;6.57;;;4.30;;
23390;SDS011;11868;45.606;5.302;2023-05-29T04:34:01;7.97;;;4.35;;
23390;SDS011;11868;45.606;5.302;2023-05-29T04:36:29;7.20;;;4.25;;
23390;SDS011;11868;45.606;5.302;2023-05-29T04:38:57;8.05;;;4.28;;
23390;SDS011;11868;45.606;5.302;2023-05-29T04:41:23;23.17;;;4.47;;
23390;SDS011;11868;45.606;5.302;2023-05-29T04:43:54;7.20;;;4.20;;
23390;SDS011;11868;45.606;5.302;2023-05-29T04:46:21;8.20;;;4.18;;
23390;SDS011;11868;45.606;5.302;2023-05-29T04:48:47;6.50;;;4.28;;
23390;SDS011;11868;45.606;5.302;2023-05-29T04:51:13;8.35;;;4.82;;
23390;SDS011;11868;45.606;5.302;2023-05-29T04:53:39;8.63;;;4.10;;
23390;SDS011;11868;45.606;5.302;2023-05-29T04:56:08;8.15;;;4.43;;
23390;SDS011;11868;45.606;5.302;2023-05-29T04:58:34;6.13;;;4.32;;
23390;SDS011;11868;45.606;5.302;2023-05-29T05:01:00;10.15;;;5.20;;
23390;SDS011;11868;45.606;5.302;2023-05-29T05:03:28;6.65;;;4.72;;
23390;SDS011;11868;45.606;5.302;2023-05-29T05:05:55;7.55;;;4.57;;
23390;SDS011;11868;45.606;5.302;2023-05-29T05:08:22;11.82;;;4.93;;
23390;SDS011;11868;45.606;5.302;2023-05-29T05:10:47;9.95;;;4.82;;
23390;SDS011;11868;45.606;5.302;2023-05-29T05:13:13;8.02;;;4.40;;
23390;SDS011;11868;45.606;5.302;2023-05-29T05:15:38;9.23;;;4.93;;
23390;SDS011;11868;45.606;5.302;2023-05-29T05:18:03;6.65;;;4.70;;
23390;SDS011;11868;45.606;5.302;2023-05-29T05:20:29;7.55;;;4.40;;
23390;SDS011;11868;45.606;5.302;2023-05-29T05:22:54;8.32;;;4.78;;
23390;SDS011;11868;45.606;5.302;2023-05-29T05:25:21;6.30;;;4.38;;
23390;SDS011;11868;45.606;5.302;2023-05-29T05:27:46;5.70;;;4.25;;
23390;SDS011;11868;45.606;5.302;2023-05-29T05:30:12;8.88;;;5.22;;
23390;SDS011;11868;45.606;5.302;2023-05-29T05:32:38;13.38;;;5.07;;
23390;SDS011;11868;45.606;5.302;2023-05-29T05:35:03;6.88;;;4.55;;
23390;SDS011;11868;45.606;5.302;2023-05-29T05:37:29;8.73;;;4.80;;
23390;SDS011;11868;45.606;5.302;2023-05-29T05:39:54;7.45;;;4.85;;
23390;SDS011;11868;45.606;5.302;2023-05-29T05:42:20;7.70;;;5.40;;
23390;SDS011;11868;45.606;5.302;2023-05-29T05:44:45;6.78;;;4.70;;
23390;SDS011;11868;45.606;5.302;2023-05-29T05:47:11;10.38;;;5.18;;
23390;SDS011;11868;45.606;5.302;2023-05-29T05:49:37;7.00;;;5.30;;
23390;SDS011;11868;45.606;5.302;2023-05-29T05:52:02;6.60;;;4.90;;
23390;SDS011;11868;45.606;5.302;2023-05-29T05:54:28;8.95;;;4.78;;
23390;SDS011;11868;45.606;5.302;2023-05-29T05:56:53;10.20;;;5.20;;
23390;SDS011;11868;45.606;5.302;2023-05-29T05:59:18;7.25;;;5.28;;
23390;SDS011;11868;45.606;5.302;2023-05-29T06:01:44;8.95;;;5.03;;
23390;SDS011;11868;45.606;5.302;2023-05-29T06:04:09;7.85;;;5.53;;
23390;SDS011;11868;45.606;5.302;2023-05-29T06:06:34;9.45;;;5.40;;
23390;SDS011;11868;45.606;5.302;2023-05-29T06:09:00;9.65;;;5.43;;
23390;SDS011;11868;45.606;5.302;2023-05-29T06:11:25;11.77;;;5.10;;
23390;SDS011;11868;45.606;5.302;2023-05-29T06:13:51;13.38;;;5.90;;
23390;SDS011;11868;45.606;5.302;2023-05-29T06:16:17;7.32;;;4.90;;
23390;SDS011;11868;45.606;5.302;2023-05-29T06:18:43;8.30;;;5.65;;
23390;SDS011;11868;45.606;5.302;2023-05-29T06:21:09;8.73;;;5.80;;
23390;SDS011;11868;45.606;5.302;2023-05-29T06:23:36;8.27;;;4.85;;
23390;SDS011;11868;45.606;5.302;2023-05-29T06:26:02;9.95;;;5.57;;
23390;SDS011;11868;45.606;5.302;2023-05-29T06:28:28;7.70;;;5.18;;
23390;SDS011;11868;45.606;5.302;2023-05-29T06:30:54;13.13;;;5.55;;
23390;SDS011;11868;45.606;5.302;2023-05-29T06:33:19;8.27;;;5.40;;
23390;SDS011;11868;45.606;5.302;2023-05-29T06:35:46;8.68;;;5.78;;
23390;SDS011;11868;45.606;5.302;2023-05-29T06:38:11;11.18;;;6.15;;
23390;SDS011;11868;45.606;5.302;2023-05-29T06:40:37;9.18;;;5.88;;
23390;SDS011;11868;45.606;5.302;2023-05-29T06:43:02;9.57;;;5.63;;
23390;SDS011;11868;45.606;5.302;2023-05-29T06:45:27;8.90;;;5.75;;
23390;SDS011;11868;45.606;5.302;2023-05-29T06:47:53;8.82;;;5.68;;
23390;SDS011;11868;45.606;5.302;2023-05-29T06:50:20;10.50;;;5.85;;
23390;SDS011;11868;45.606;5.302;2023-05-29T06:52:45;12.82;;;5.90;;
23390;SDS011;11868;45.606;5.302;2023-05-29T06:55:11;7.57;;;5.50;;
23390;SDS011;11868;45.606;5.302;2023-05-29T06:57:36;12.95;;;5.75;;
23390;SDS011;11868;45.606;5.302;2023-05-29T07:00:01;7.60;;;5.50;;
23390;SDS011;11868;45.606;5.302;2023-05-29T07:02:30;10.23;;;5.63;;
23390;SDS011;11868;45.606;5.302;2023-05-29T07:04:55;9.82;;;4.95;;
23390;SDS011;11868;45.606;5.302;2023-05-29T07:07:21;8.85;;;5.70;;
23390;SDS011;11868;45.606;5.302;2023-05-29T07:09:46;11.93;;;6.30;;
23390;SDS011;11868;45.606;5.302;2023-05-29T07:12:13;11.15;;;5.68;;
23390;SDS011;11868;45.606;5.302;2023-05-29T07:14:40;9.70;;;5.90;;
23390;SDS011;11868;45.606;5.302;2023-05-29T07:17:05;10.35;;;5.82;;
23390;SDS011;11868;45.606;5.302;2023-05-29T07:19:31;9.90;;;5.75;;
23390;SDS011;11868;45.606;5.302;2023-05-29T07:21:58;7.22;;;5.20;;
23390;SDS011;11868;45.606;5.302;2023-05-29T07:24:24;10.30;;;5.63;;
23390;SDS011;11868;45.606;5.302;2023-05-29T07:26:50;10.73;;;6.22;;
23390;SDS011;11868;45.606;5.302;2023-05-29T07:29:16;14.68;;;6.07;;
23390;SDS011;11868;45.606;5.302;2023-05-29T07:31:43;14.45;;;6.65;;
23390;SDS011;11868;45.606;5.302;2023-05-29T07:34:09;10.45;;;6.38;;
23390;SDS011;11868;45.606;5.302;2023-05-29T07:36:35;16.38;;;6.20;;
23390;SDS011;11868;45.606;5.302;2023-05-29T07:39:01;11.43;;;6.10;;
23390;SDS011;11868;45.606;5.302;2023-05-29T07:41:26;10.57;;;6.97;;
23390;SDS011;11868;45.606;5.302;2023-05-29T07:43:52;8.68;;;5.97;;
23390;SDS011;11868;45.606;5.302;2023-05-29T07:46:17;10.35;;;6.10;;
23390;SDS011;11868;45.606;5.302;2023-05-29T07:48:43;8.85;;;6.47;;
23390;SDS011;11868;45.606;5.302;2023-05-29T07:51:10;11.65;;;6.00;;
23390;SDS011;11868;45.606;5.302;2023-05-29T07:53:36;8.85;;;6.15;;
23390;SDS011;11868;45.606;5.302;2023-05-29T07:56:01;8.05;;;6.00;;
23390;SDS011;11868;45.606;5.302;2023-05-29T07:58:27;10.23;;;5.60;;
23390;SDS011;11868;45.606;5.302;2023-05-29T08:00:53;8.52;;;5.85;;
23390;SDS011;11868;45.606;5.302;2023-05-29T08:03:18;9.30;;;5.55;;
23390;SDS011;11868;45.606;5.302;2023-05-29T08:05:44;9.48;;;5.78;;
23390;SDS011;11868;45.606;5.302;2023-05-29T08:08:09;11.82;;;6.22;;
23390;SDS011;11868;45.606;5.302;2023-05-29T08:10:37;10.20;;;5.85;;
23390;SDS011;11868;45.606;5.302;2023-05-29T08:13:03;8.30;;;5.93;;
23390;SDS011;11868;45.606;5.302;2023-05-29T08:15:29;10.90;;;6.28;;
23390;SDS011;11868;45.606;5.302;2023-05-29T08:17:54;9.70;;;5.88;;
23390;SDS011;11868;45.606;5.302;2023-05-29T08:20:20;8.90;;;6.22;;
23390;SDS011;11868;45.606;5.302;2023-05-29T08:22:45;8.95;;;6.00;;
23390;SDS011;11868;45.606;5.302;2023-05-29T08:25:11;11.60;;;6.63;;
23390;SDS011;11868;45.606;5.302;2023-05-29T08:27:36;11.10;;;5.95;;
23390;SDS011;11868;45.606;5.302;2023-05-29T08:30:02;10.65;;;5.50;;
23390;SDS011;11868;45.606;5.302;2023-05-29T08:32:28;10.75;;;6.13;;
23390;SDS011;11868;45.606;5.302;2023-05-29T08:34:54;7.80;;;5.88;;
23390;SDS011;11868;45.606;5.302;2023-05-29T08:37:19;10.48;;;5.22;;
23390;SDS011;11868;45.606;5.302;2023-05-29T08:39:45;10.20;;;6.15;;
23390;SDS011;11868;45.606;5.302;2023-05-29T08:42:12;8.30;;;5.85;;
23390;SDS011;11868;45.606;5.302;2023-05-29T08:44:40;9.55;;;5.88;;
23390;SDS011;11868;45.606;5.302;2023-05-29T08:47:06;11.77;;;6.80;;
23390;SDS011;11868;45.606;5.302;2023-05-29T08:49:41;11.30;;;5.57;;
23390;SDS011;11868;45.606;5.302;2023-05-29T08:52:19;11.18;;;6.03;;
23390;SDS011;11868;45.606;5.302;2023-05-29T08:54:45;13.23;;;5.90;;
23390;SDS011;11868;45.606;5.302;2023-05-29T08:57:11;8.75;;;6.15;;
23390;SDS011;11868;45.606;5.302;2023-05-29T08:59:37;10.18;;;6.28;;
23390;SDS011;11868;45.606;5.302;2023-05-29T09:02:05;11.88;;;6.00;;
23390;SDS011;11868;45.606;5.302;2023-05-29T09:04:30;10.95;;;6.07;;
23390;SDS011;11868;45.606;5.302;2023-05-29T09:06:57;9.50;;;5.80;;
23390;SDS011;11868;45.606;5.302;2023-05-29T09:09:23;10.48;;;6.40;;
23390;SDS011;11868;45.606;5.302;2023-05-29T09:11:51;9.52;;;5.32;;
23390;SDS011;11868;45.606;5.302;2023-05-29T09:17:02;11.88;;;6.30;;
23390;SDS011;11868;45.606;5.302;2023-05-29T09:19:29;13.25;;;5.72;;
23390;SDS011;11868;45.606;5.302;2023-05-29T09:22:05;8.93;;;5.88;;
23390;SDS011;11868;45.606;5.302;2023-05-29T09:24:35;10.88;;;6.15;;
23390;SDS011;11868;45.606;5.302;2023-05-29T09:27:04;10.57;;;6.63;;
23390;SDS011;11868;45.606;5.302;2023-05-29T09:29:31;12.10;;;6.30;;
23390;SDS011;11868;45.606;5.302;2023-05-29T09:31:57;10.07;;;5.85;;
23390;SDS011;11868;45.606;5.302;2023-05-29T09:34:24;9.80;;;5.90;;
23390;SDS011;11868;45.606;5.302;2023-05-29T09:36:51;15.73;;;6.50;;
23390;SDS011;11868;45.606;5.302;2023-05-29T09:39:17;9.52;;;5.75;;
23390;SDS011;11868;45.606;5.302;2023-05-29T09:41:44;11.68;;;6.10;;
23390;SDS011;11868;45.606;5.302;2023-05-29T09:44:13;9.45;;;5.70;;
23390;SDS011;11868;45.606;5.302;2023-05-29T09:46:39;10.13;;;5.68;;
23390;SDS011;11868;45.606;5.302;2023-05-29T09:49:12;10.60;;;5.65;;
23390;SDS011;11868;45.606;5.302;2023-05-29T09:51:38;9.57;;;5.82;;
23390;SDS011;11868;45.606;5.302;2023-05-29T09:54:17;12.23;;;5.90;;
23390;SDS011;11868;45.606;5.302;2023-05-29T09:56:43;8.30;;;5.88;;
23390;SDS011;11868;45.606;5.302;2023-05-29T09:59:13;11.82;;;5.78;;
23390;SDS011;11868;45.606;5.302;2023-05-29T10:01:40;9.10;;;5.82;;
23390;SDS011;11868;45.606;5.302;2023-05-29T10:04:07;9.93;;;5.13;;
23390;SDS011;11868;45.606;5.302;2023-05-29T10:06:34;9.65;;;5.43;;
23390;SDS011;11868;45.606;5.302;2023-05-29T10:09:01;9.63;;;5.88;;
23390;SDS011;11868;45.606;5.302;2023-05-29T10:11:28;10.20;;;6.03;;
23390;SDS011;11868;45.606;5.302;2023-05-29T10:13:54;10.38;;;5.80;;
23390;SDS011;11868;45.606;5.302;2023-05-29T10:16:22;12.25;;;5.85;;
23390;SDS011;11868;45.606;5.302;2023-05-29T10:18:58;9.10;;;5.85;;
23390;SDS011;11868;45.606;5.302;2023-05-29T10:21:27;11.93;;;5.43;;
23390;SDS011;11868;45.606;5.302;2023-05-29T10:23:53;14.35;;;5.50;;
23390;SDS011;11868;45.606;5.302;2023-05-29T10:26:21;10.93;;;6.35;;
23390;SDS011;11868;45.606;5.302;2023-05-29T10:28:55;9.07;;;5.15;;
23390;SDS011;11868;45.606;5.302;2023-05-29T10:32:07;8.55;;;5.55;;
23390;SDS011;11868;45.606;5.302;2023-05-29T10:34:36;9.88;;;5.57;;
23390;SDS011;11868;45.606;5.302;2023-05-29T10:39:51;8.48;;;5.32;;
23390;SDS011;11868;45.606;5.302;2023-05-29T10:45:04;10.35;;;5.10;;
23390;SDS011;11868;45.606;5.302;2023-05-29T10:47:30;9.65;;;6.03;;
23390;SDS011;11868;45.606;5.302;2023-05-29T10:49:59;8.32;;;4.55;;
23390;SDS011;11868;45.606;5.302;2023-05-29T10:52:25;9.95;;;5.30;;
23390;SDS011;11868;45.606;5.302;2023-05-29T10:54:51;10.90;;;6.15;;
23390;SDS011;11868;45.606;5.302;2023-05-29T10:57:18;10.50;;;5.20;;
23390;SDS011;11868;45.606;5.302;2023-05-29T10:59:44;11.18;;;5.47;;
23390;SDS011;11868;45.606;5.302;2023-05-29T11:02:10;8.13;;;5.35;;
23390;SDS011;11868;45.606;5.302;2023-05-29T11:04:35;9.93;;;5.25;;
23390;SDS011;11868;45.606;5.302;2023-05-29T11:07:02;8.10;;;5.60;;
23390;SDS011;11868;45.606;5.302;2023-05-29T11:12:10;7.45;;;5.18;;
23390;SDS011;11868;45.606;5.302;2023-05-29T11:17:31;9.73;;;5.80;;
23390;SDS011;11868;45.606;5.302;2023-05-29T11:20:13;8.25;;;5.25;;
23390;SDS011;11868;45.606;5.302;2023-05-29T11:25:13;8.35;;;5.15;;
23390;SDS011;11868;45.606;5.302;2023-05-29T11:27:40;9.65;;;4.97;;
23390;SDS011;11868;45.606;5.302;2023-05-29T11:30:06;8.50;;;4.93;;
23390;SDS011;11868;45.606;5.302;2023-05-29T11:32:32;9.05;;;4.53;;
23390;SDS011;11868;45.606;5.302;2023-05-29T11:34:59;7.80;;;4.72;;
23390;SDS011;11868;45.606;5.302;2023-05-29T11:37:26;7.07;;;4.88;;
23390;SDS011;11868;45.606;5.302;2023-05-29T11:39:51;9.50;;;5.22;;
23390;SDS011;11868;45.606;5.302;2023-05-29T11:42:16;7.00;;;4.47;;
23390;SDS011;11868;45.606;5.302;2023-05-29T11:44:42;8.15;;;4.88;;
23390;SDS011;11868;45.606;5.302;2023-05-29T11:47:07;6.88;;;5.35;;
23390;SDS011;11868;45.606;5.302;2023-05-29T11:49:33;12.02;;;5.50;;
23390;SDS011;11868;45.606;5.302;2023-05-29T11:52:06;9.65;;;5.85;;
23390;SDS011;11868;45.606;5.302;2023-05-29T11:54:33;9.07;;;5.75;;
23390;SDS011;11868;45.606;5.302;2023-05-29T11:57:00;10.30;;;5.07;;
23390;SDS011;11868;45.606;5.302;2023-05-29T11:59:28;10.10;;;5.32;;
23390;SDS011;11868;45.606;5.302;2023-05-29T12:01:54;9.15;;;6.18;;
23390;SDS011;11868;45.606;5.302;2023-05-29T12:04:19;7.20;;;5.28;;
23390;SDS011;11868;45.606;5.302;2023-05-29T12:06:45;10.60;;;5.63;;
23390;SDS011;11868;45.606;5.302;2023-05-29T12:09:23;8.20;;;5.60;;
23390;SDS011;11868;45.606;5.302;2023-05-29T12:11:51;10.48;;;5.30;;
23390;SDS011;11868;45.606;5.302;2023-05-29T12:14:17;9.88;;;5.60;;
23390;SDS011;11868;45.606;5.302;2023-05-29T12:16:42;13.23;;;6.00;;
23390;SDS011;11868;45.606;5.302;2023-05-29T12:19:08;9.20;;;5.50;;
23390;SDS011;11868;45.606;5.302;2023-05-29T12:21:33;10.98;;;5.32;;
23390;SDS011;11868;45.606;5.302;2023-05-29T12:23:59;10.80;;;5.75;;
23390;SDS011;11868;45.606;5.302;2023-05-29T12:26:25;8.80;;;5.50;;
23390;SDS011;11868;45.606;5.302;2023-05-29T12:28:51;8.52;;;5.25;;
23390;SDS011;11868;45.606;5.302;2023-05-29T12:34:01;13.05;;;5.78;;
23390;SDS011;11868;45.606;5.302;2023-05-29T12:36:32;11.55;;;5.53;;
23390;SDS011;11868;45.606;5.302;2023-05-29T12:38:57;12.02;;;5.68;;
23390;SDS011;11868;45.606;5.302;2023-05-29T12:43:55;11.07;;;5.45;;
23390;SDS011;11868;45.606;5.302;2023-05-29T12:46:21;7.85;;;5.07;;
23390;SDS011;11868;45.606;5.302;2023-05-29T12:48:47;8.27;;;5.20;;
23390;SDS011;11868;45.606;5.302;2023-05-29T12:51:14;6.72;;;5.30;;
23390;SDS011;11868;45.606;5.302;2023-05-29T12:53:40;10.70;;;5.30;;
23390;SDS011;11868;45.606;5.302;2023-05-29T12:56:05;8.02;;;5.05;;
23390;SDS011;11868;45.606;5.302;2023-05-29T12:58:30;10.52;;;5.68;;
23390;SDS011;11868;45.606;5.302;2023-05-29T13:00:56;13.63;;;5.80;;
23390;SDS011;11868;45.606;5.302;2023-05-29T13:03:21;8.13;;;5.03;;
23390;SDS011;11868;45.606;5.302;2023-05-29T13:05:50;8.30;;;5.63;;
23390;SDS011;11868;45.606;5.302;2023-05-29T13:08:15;8.48;;;5.97;;
23390;SDS011;11868;45.606;5.302;2023-05-29T13:10:41;12.25;;;5.38;;
23390;SDS011;11868;45.606;5.302;2023-05-29T13:13:06;11.45;;;5.35;;
23390;SDS011;11868;45.606;5.302;2023-05-29T13:15:32;9.40;;;5.22;;
23390;SDS011;11868;45.606;5.302;2023-05-29T13:17:58;10.40;;;5.45;;
23390;SDS011;11868;45.606;5.302;2023-05-29T13:20:24;9.20;;;5.30;;
23390;SDS011;11868;45.606;5.302;2023-05-29T13:22:49;11.15;;;5.43;;
23390;SDS011;11868;45.606;5.302;2023-05-29T13:25:16;12.43;;;5.63;;
23390;SDS011;11868;45.606;5.302;2023-05-29T13:27:43;7.72;;;5.20;;
23390;SDS011;11868;45.606;5.302;2023-05-29T13:30:10;8.23;;;5.00;;
23390;SDS011;11868;45.606;5.302;2023-05-29T13:32:36;8.00;;;5.55;;
23390;SDS011;11868;45.606;5.302;2023-05-29T13:35:02;7.72;;;5.30;;
23390;SDS011;11868;45.606;5.302;2023-05-29T13:37:28;13.70;;;5.20;;
23390;SDS011;11868;45.606;5.302;2023-05-29T13:39:53;7.18;;;5.20;;
23390;SDS011;11868;45.606;5.302;2023-05-29T13:42:19;9.05;;;5.28;;
23390;SDS011;11868;45.606;5.302;2023-05-29T13:44:45;9.82;;;5.25;;
23390;SDS011;11868;45.606;5.302;2023-05-29T13:47:11;8.23;;;5.07;;
23390;SDS011;11868;45.606;5.302;2023-05-29T13:49:37;8.00;;;5.47;;
23390;SDS011;11868;45.606;5.302;2023-05-29T13:52:02;7.60;;;5.57;;
23390;SDS011;11868;45.606;5.302;2023-05-29T13:54:28;9.30;;;5.22;;
23390;SDS011;11868;45.606;5.302;2023-05-29T13:56:56;8.48;;;4.65;;
23390;SDS011;11868;45.606;5.302;2023-05-29T13:59:22;7.60;;;5.25;;
23390;SDS011;11868;45.606;5.302;2023-05-29T14:01:47;9.55;;;5.70;;
23390;SDS011;11868;45.606;5.302;2023-05-29T14:04:13;8.00;;;5.28;;
23390;SDS011;11868;45.606;5.302;2023-05-29T14:06:38;8.15;;;4.97;;
23390;SDS011;11868;45.606;5.302;2023-05-29T14:09:04;9.65;;;5.78;;
23390;SDS011;11868;45.606;5.302;2023-05-29T14:11:29;10.85;;;5.15;;
23390;SDS011;11868;45.606;5.302;2023-05-29T14:13:55;8.23;;;5.35;;
23390;SDS011;11868;45.606;5.302;2023-05-29T14:16:20;9.88;;;5.30;;
23390;SDS011;11868;45.606;5.302;2023-05-29T14:18:45;8.30;;;5.15;;
23390;SDS011;11868;45.606;5.302;2023-05-29T14:21:13;8.25;;;4.97;;
23390;SDS011;11868;45.606;5.302;2023-05-29T14:23:39;11.52;;;5.03;;
23390;SDS011;11868;45.606;5.302;2023-05-29T14:26:04;6.40;;;4.80;;
23390;SDS011;11868;45.606;5.302;2023-05-29T14:28:30;9.77;;;5.03;;
23390;SDS011;11868;45.606;5.302;2023-05-29T14:30:55;11.80;;;5.25;;
23390;SDS011;11868;45.606;5.302;2023-05-29T14:33:20;10.75;;;5.65;;
23390;SDS011;11868;45.606;5.302;2023-05-29T14:35:46;10.43;;;5.50;;
23390;SDS011;11868;45.606;5.302;2023-05-29T14:38:11;9.15;;;5.43;;
23390;SDS011;11868;45.606;5.302;2023-05-29T14:40:36;7.40;;;5.40;;
23390;SDS011;11868;45.606;5.302;2023-05-29T14:43:03;11.13;;;5.28;;
23390;SDS011;11868;45.606;5.302;2023-05-29T14:45:28;9.25;;;5.28;;
23390;SDS011;11868;45.606;5.302;2023-05-29T14:47:54;7.75;;;5.10;;
23390;SDS011;11868;45.606;5.302;2023-05-29T14:50:19;8.43;;;5.70;;
23390;SDS011;11868;45.606;5.302;2023-05-29T14:52:45;12.80;;;5.85;;
23390;SDS011;11868;45.606;5.302;2023-05-29T14:55:12;7.85;;;5.30;;
23390;SDS011;11868;45.606;5.302;2023-05-29T14:57:40;8.93;;;5.78;;
23390;SDS011;11868;45.606;5.302;2023-05-29T15:00:06;9.00;;;5.30;;
23390;SDS011;11868;45.606;5.302;2023-05-29T15:02:32;9.70;;;5.75;;
23390;SDS011;11868;45.606;5.302;2023-05-29T15:04:57;10.48;;;5.50;;
23390;SDS011;11868;45.606;5.302;2023-05-29T15:07:22;10.00;;;5.47;;